Time;durP1;ratioP1;P1;durP2;ratioP2;P2;SDS_P1;SDS_P2;PMS_P1;PMS_P2;Temp;Humidity;BMP_temperature;BMP_pressure;BME280_temperature;BME280_humidity;BME280_pressure;Samples;Min_cycle;Max_cycle;Signal;HPM_P1;HPM_P2
2023/10/08 00:02:27;;;;;;;;;;;20.50;73.20;;;;;;5009325;28;1911;-65
2023/10/08 00:04:55;;;;;;;;;;;20.50;73.20;;;;;;5010153;28;1321;-65
2023/10/08 00:07:21;;;;;;;;;;;20.50;73.20;;;;;;5008906;28;1388;-65
2023/10/08 00:09:51;;;;;;;;;;;20.50;73.20;;;;;;5007846;28;1346;-65
2023/10/08 00:12:17;;;;;;;;;;;20.50;73.20;;;;;;5008154;28;1464;-65
2023/10/08 00:14:49;;;;;;;;;;;20.50;73.20;;;;;;5009249;28;1241;-65
2023/10/08 00:17:14;;;;;;;;;;;20.50;73.20;;;;;;5009713;28;1746;-65
2023/10/08 00:19:42;;;;;;;;;;;20.50;73.20;;;;;;5008668;28;1355;-65
2023/10/08 00:22:09;;;;;;;;;;;20.50;73.20;;;;;;5008579;28;1902;-65
2023/10/08 00:24:35;;;;;;;;;;;20.50;73.20;;;;;;5009466;28;1040;-65
2023/10/08 00:27:02;;;;;;;;;;;20.50;73.20;;;;;;5010039;28;1445;-65
2023/10/08 00:29:31;;;;;;;;;;;20.50;73.20;;;;;;5010119;28;1269;-65
2023/10/08 00:31:56;;;;;;;;;;;20.50;73.20;;;;;;4992316;28;1495;-65
2023/10/08 00:34:22;;;;;;;;;;;20.50;73.20;;;;;;5010154;28;1934;-65
2023/10/08 00:36:48;;;;;;;;;;;20.50;73.20;;;;;;5010214;28;1349;-65
2023/10/08 00:39:14;;;;;;;;;;;20.50;73.20;;;;;;5009892;28;1328;-65
2023/10/08 00:41:43;;;;;;;;;;;20.50;73.20;;;;;;5008741;28;1906;-65
2023/10/08 00:44:13;;;;;;;;;;;20.50;73.20;;;;;;5007498;28;1548;-65
2023/10/08 00:46:47;;;;;;;;;;;20.50;73.20;;;;;;5010037;28;1194;-65
2023/10/08 00:51:48;;;;;;;;;;;20.50;73.20;;;;;;5008927;28;1356;-65
2023/10/08 00:54:18;;;;;;;;;;;20.50;73.20;;;;;;5009804;28;1301;-65
2023/10/08 00:59:15;;;;;;;;;;;20.50;73.20;;;;;;5009659;28;1356;-65
2023/10/08 01:01:51;;;;;;;;;;;20.50;74.00;;;;;;5009704;28;1934;-65
2023/10/08 01:04:23;;;;;;;;;;;20.50;73.20;;;;;;5007784;28;1689;-65
2023/10/08 01:06:59;;;;;;;;;;;20.50;73.20;;;;;;5009842;28;1143;-65
2023/10/08 01:09:31;;;;;;;;;;;20.50;73.20;;;;;;5008524;28;1126;-65
2023/10/08 01:12:12;;;;;;;;;;;20.50;73.30;;;;;;5009900;28;1365;-65
2023/10/08 01:14:42;;;;;;;;;;;20.50;73.20;;;;;;4992245;28;1445;-65
2023/10/08 01:17:07;;;;;;;;;;;20.50;73.20;;;;;;5013330;28;1363;-65
2023/10/08 01:19:35;;;;;;;;;;;20.50;73.20;;;;;;5013295;28;1247;-65
2023/10/08 01:22:06;;;;;;;;;;;20.50;73.30;;;;;;5013269;28;1898;-65
2023/10/08 01:24:36;;;;;;;;;;;20.50;73.30;;;;;;5013349;28;1452;-65
2023/10/08 01:27:05;;;;;;;;;;;20.50;73.20;;;;;;5013120;28;1332;-65
2023/10/08 01:29:31;;;;;;;;;;;20.50;73.20;;;;;;4994728;28;1043;-65
2023/10/08 01:31:57;;;;;;;;;;;20.50;73.30;;;;;;5005618;28;1368;-65
2023/10/08 01:34:30;;;;;;;;;;;20.50;73.30;;;;;;5013002;28;1458;-65
2023/10/08 01:37:01;;;;;;;;;;;20.50;73.20;;;;;;5011848;28;1268;-65
2023/10/08 01:39:26;;;;;;;;;;;20.50;73.20;;;;;;4995800;28;1181;-65
2023/10/08 01:41:52;;;;;;;;;;;20.50;73.20;;;;;;5011659;28;1985;-65
2023/10/08 01:44:17;;;;;;;;;;;20.50;73.30;;;;;;5012989;28;1352;-65
2023/10/08 01:46:43;;;;;;;;;;;20.50;73.20;;;;;;5012995;28;1496;-65
2023/10/08 01:49:14;;;;;;;;;;;20.50;73.20;;;;;;5012632;28;1249;-65
2023/10/08 01:51:46;;;;;;;;;;;20.50;73.30;;;;;;5011610;28;1548;-65
2023/10/08 01:54:13;;;;;;;;;;;20.50;73.30;;;;;;5012751;28;1381;-65
2023/10/08 01:56:41;;;;;;;;;;;20.50;73.20;;;;;;5012559;28;1348;-65
2023/10/08 01:59:08;;;;;;;;;;;20.50;73.20;;;;;;5010832;28;1225;-65
2023/10/08 02:01:34;;;;;;;;;;;20.50;73.30;;;;;;5012528;28;1974;-65
2023/10/08 02:03:59;;;;;;;;;;;20.50;73.30;;;;;;5011073;28;1320;-65
2023/10/08 02:06:25;;;;;;;;;;;20.50;73.30;;;;;;5012570;28;1606;-65
2023/10/08 02:08:50;;;;;;;;;;;20.50;73.30;;;;;;5012368;28;1339;-66
2023/10/08 02:11:16;;;;;;;;;;;20.50;73.20;;;;;;5012391;28;1301;-65
2023/10/08 02:13:42;;;;;;;;;;;20.50;73.30;;;;;;5012914;28;971;-65
2023/10/08 02:16:07;;;;;;;;;;;20.50;73.30;;;;;;5012413;28;1310;-65
2023/10/08 02:18:33;;;;;;;;;;;20.50;73.30;;;;;;4994379;28;1318;-65
2023/10/08 02:20:58;;;;;;;;;;;20.50;73.20;;;;;;5012325;28;1968;-65
2023/10/08 02:23:24;;;;;;;;;;;20.50;73.30;;;;;;5012270;28;1219;-65
2023/10/08 02:25:49;;;;;;;;;;;20.50;73.30;;;;;;5011927;28;1209;-65
2023/10/08 02:28:15;;;;;;;;;;;20.50;73.30;;;;;;5011679;28;1192;-65
2023/10/08 02:30:41;;;;;;;;;;;20.50;73.30;;;;;;5012345;28;1631;-65
2023/10/08 02:33:16;;;;;;;;;;;20.50;73.30;;;;;;5010738;28;1188;-65
2023/10/08 02:35:42;;;;;;;;;;;20.50;73.30;;;;;;4996431;28;1464;-65
2023/10/08 02:38:13;;;;;;;;;;;20.50;73.30;;;;;;5011620;28;1414;-65
2023/10/08 02:40:44;;;;;;;;;;;20.50;73.40;;;;;;5011286;28;1906;-65
2023/10/08 02:43:11;;;;;;;;;;;20.50;73.30;;;;;;5011579;28;1254;-65
2023/10/08 02:45:38;;;;;;;;;;;20.50;73.30;;;;;;5010157;28;1288;-65
2023/10/08 02:48:11;;;;;;;;;;;20.50;73.30;;;;;;5011008;28;1337;-65
2023/10/08 02:50:40;;;;;;;;;;;20.50;73.30;;;;;;5011043;28;1297;-65
2023/10/08 02:53:11;;;;;;;;;;;20.50;73.40;;;;;;5009695;28;1615;-65
2023/10/08 02:55:43;;;;;;;;;;;20.50;73.40;;;;;;5010507;28;1224;-65
2023/10/08 02:58:14;;;;;;;;;;;20.50;73.30;;;;;;5010059;28;1480;-65
2023/10/08 03:00:41;;;;;;;;;;;20.50;73.30;;;;;;5011145;28;1985;-65
2023/10/08 03:03:15;;;;;;;;;;;20.50;73.30;;;;;;5011042;28;1221;-65
2023/10/08 03:05:51;;;;;;;;;;;20.50;73.30;;;;;;5011074;28;1316;-65
2023/10/08 03:08:20;;;;;;;;;;;20.50;73.40;;;;;;5009212;28;1143;-65
2023/10/08 03:10:48;;;;;;;;;;;20.50;73.30;;;;;;5011574;28;1296;-65
2023/10/08 03:13:16;;;;;;;;;;;20.50;73.40;;;;;;5009954;28;1070;-65
2023/10/08 03:16:08;;;;;;;;;;;20.50;73.30;;;;;;5011257;28;1351;-65
2023/10/08 03:18:36;;;;;;;;;;;20.50;73.30;;;;;;5010893;28;1296;-65
2023/10/08 03:21:06;;;;;;;;;;;20.50;73.30;;;;;;5009193;28;1902;-65
2023/10/08 03:23:35;;;;;;;;;;;20.50;73.40;;;;;;5010709;28;1369;-65
2023/10/08 03:26:10;;;;;;;;;;;20.50;73.40;;;;;;5010871;28;1363;-65
2023/10/08 03:28:37;;;;;;;;;;;20.50;73.40;;;;;;4994352;28;1258;-65
2023/10/08 03:31:04;;;;;;;;;;;20.50;73.30;;;;;;5009455;28;1393;-65
2023/10/08 03:33:34;;;;;;;;;;;20.50;73.40;;;;;;5009212;28;1378;-65
2023/10/08 03:36:00;;;;;;;;;;;20.50;73.30;;;;;;5008768;28;1475;-65
2023/10/08 03:38:44;;;;;;;;;;;20.50;73.40;;;;;;5007251;28;1223;-65
2023/10/08 03:41:15;;;;;;;;;;;20.50;73.40;;;;;;5010716;28;1907;-65
2023/10/08 03:44:01;;;;;;;;;;;20.50;73.40;;;;;;4981980;28;1553;-65
2023/10/08 03:46:29;;;;;;;;;;;20.50;73.40;;;;;;5010751;28;1301;-65
2023/10/08 03:48:57;;;;;;;;;;;20.50;73.40;;;;;;5010352;28;1243;-65
2023/10/08 03:51:26;;;;;;;;;;;20.50;73.40;;;;;;5010518;28;1550;-65
2023/10/08 03:53:58;;;;;;;;;;;20.50;73.40;;;;;;5008698;28;1524;-65
2023/10/08 03:56:30;;;;;;;;;;;20.50;73.40;;;;;;5010688;28;1428;-65
2023/10/08 03:58:55;;;;;;;;;;;20.50;73.40;;;;;;5009714;28;1323;-65
2023/10/08 04:01:24;;;;;;;;;;;20.50;73.40;;;;;;5008764;28;1902;-65
2023/10/08 04:06:29;;;;;;;;;;;20.50;73.40;;;;;;5009522;28;1357;-65
2023/10/08 04:09:10;;;;;;;;;;;20.50;73.40;;;;;;5008322;28;836;-65
2023/10/08 04:11:51;;;;;;;;;;;20.50;73.40;;;;;;5010564;28;1484;-65
2023/10/08 04:14:17;;;;;;;;;;;20.50;73.40;;;;;;5009055;28;1598;-65
2023/10/08 04:16:43;;;;;;;;;;;20.50;73.40;;;;;;4997530;28;1107;-65
2023/10/08 04:19:12;;;;;;;;;;;20.50;73.40;;;;;;5009991;28;1355;-65
2023/10/08 04:21:41;;;;;;;;;;;20.50;73.40;;;;;;5009843;28;1905;-65
2023/10/08 04:24:08;;;;;;;;;;;20.50;73.40;;;;;;5010446;28;1554;-65
2023/10/08 04:26:34;;;;;;;;;;;20.50;73.40;;;;;;5010326;28;919;-65
2023/10/08 04:29:06;;;;;;;;;;;20.50;73.40;;;;;;5008853;28;1481;-65
2023/10/08 04:31:38;;;;;;;;;;;20.50;73.40;;;;;;5008453;28;1509;-65
2023/10/08 04:34:10;;;;;;;;;;;20.50;73.40;;;;;;5010043;28;1324;-65
2023/10/08 04:36:38;;;;;;;;;;;20.50;73.40;;;;;;5009769;28;1317;-65
2023/10/08 04:39:12;;;;;;;;;;;20.50;73.40;;;;;;5009676;28;1327;-65
2023/10/08 04:41:42;;;;;;;;;;;20.50;73.40;;;;;;5009802;28;1981;-65
2023/10/08 04:44:15;;;;;;;;;;;20.50;73.40;;;;;;5010033;28;1465;-65
2023/10/08 04:46:47;;;;;;;;;;;20.50;73.40;;;;;;5008314;28;1386;-65
2023/10/08 04:49:27;;;;;;;;;;;20.50;73.40;;;;;;4992338;28;1351;-65
2023/10/08 04:51:56;;;;;;;;;;;20.50;73.40;;;;;;5011360;28;1657;-65
2023/10/08 04:54:29;;;;;;;;;;;20.50;73.50;;;;;;5012815;28;1118;-65
2023/10/08 04:56:59;;;;;;;;;;;20.50;73.40;;;;;;5012226;28;951;-65
2023/10/08 04:59:32;;;;;;;;;;;20.50;73.40;;;;;;5013286;28;1313;-65
2023/10/08 05:10:32;;;;;;;;;;;20.50;73.40;;;;;;5012217;28;1454;-65
2023/10/08 05:18:19;;;;;;;;;;;20.50;73.40;;;;;;5011755;28;1486;-65
2023/10/08 05:20:59;;;;;;;;;;;20.50;73.40;;;;;;4980182;28;1910;-65
2023/10/08 05:26:20;;;;;;;;;;;20.40;73.40;;;;;;5013289;28;1371;-65
2023/10/08 05:34:32;;;;;;;;;;;20.50;73.50;;;;;;5012031;28;1406;-65
2023/10/08 05:39:32;;;;;;;;;;;20.50;73.50;;;;;;5013209;28;1541;-65
2023/10/08 05:43:01;;;;;;;;;;;20.40;73.40;;;;;;5012015;28;1919;-65
2023/10/08 05:52:53;;;;;;;;;;;20.40;73.50;;;;;;5013012;28;1345;-66
2023/10/08 05:55:27;;;;;;;;;;;20.40;73.40;;;;;;5012512;28;1503;-65
2023/10/08 05:58:02;;;;;;;;;;;20.50;73.50;;;;;;5011308;28;1381;-66
2023/10/08 06:03:31;;;;;;;;;;;20.50;73.50;;;;;;5011273;28;1906;-65
2023/10/08 06:06:22;;;;;;;;;;;20.50;73.50;;;;;;5012614;28;1394;-65
2023/10/08 06:08:49;;;;;;;;;;;20.40;73.40;;;;;;5011661;28;1431;-65
2023/10/08 06:11:30;;;;;;;;;;;20.50;73.50;;;;;;5012371;28;1388;-65
2023/10/08 06:14:00;;;;;;;;;;;20.50;73.50;;;;;;5012108;28;1394;-66
2023/10/08 06:16:41;;;;;;;;;;;20.50;73.50;;;;;;5011862;28;1587;-66
2023/10/08 06:19:09;;;;;;;;;;;20.50;73.00;;;;;;5011922;28;1340;-66
2023/10/08 06:21:35;;;;;;;;;;;20.40;72.00;;;;;;5012258;28;1902;-66
2023/10/08 06:24:00;;;;;;;;;;;20.40;71.10;;;;;;5012607;28;1458;-66
2023/10/08 06:26:26;;;;;;;;;;;20.50;71.60;;;;;;5010904;28;1644;-66
2023/10/08 06:28:57;;;;;;;;;;;20.50;70.80;;;;;;5009240;28;1941;-67
2023/10/08 06:31:24;;;;;;;;;;;20.40;70.50;;;;;;5010044;28;1883;-67
2023/10/08 06:33:50;;;;;;;;;;;20.40;70.50;;;;;;5012287;28;1237;-67
2023/10/08 06:36:15;;;;;;;;;;;20.50;70.20;;;;;;5011739;28;1342;-67
2023/10/08 06:38:44;;;;;;;;;;;20.40;69.70;;;;;;5011746;28;1265;-67
2023/10/08 06:43:39;;;;;;;;;;;20.40;69.40;;;;;;5010780;28;1362;-70
2023/10/08 06:46:07;;;;;;;;;;;20.40;69.40;;;;;;5010215;28;1315;-70
2023/10/08 06:48:34;;;;;;;;;;;20.40;68.90;;;;;;4992775;28;1296;-69
2023/10/08 06:51:07;;;;;;;;;;;20.40;69.10;;;;;;5011019;28;1558;-69
2023/10/08 06:53:38;;;;;;;;;;;20.40;68.90;;;;;;5009346;28;1355;-70
2023/10/08 06:56:04;;;;;;;;;;;20.40;68.60;;;;;;5009390;28;1538;-69
2023/10/08 06:58:31;;;;;;;;;;;20.40;68.50;;;;;;5010802;28;1978;-67
2023/10/08 07:00:58;;;;;;;;;;;20.40;68.50;;;;;;5011468;28;1963;-67
2023/10/08 07:03:24;;;;;;;;;;;20.40;68.60;;;;;;4993337;28;1984;-67
2023/10/08 07:05:59;;;;;;;;;;;20.30;68.40;;;;;;5008346;28;1787;-67
2023/10/08 07:08:26;;;;;;;;;;;20.40;68.40;;;;;;4996953;28;1878;-67
2023/10/08 07:10:53;;;;;;;;;;;20.40;68.10;;;;;;5009645;28;1326;-67
2023/10/08 07:13:24;;;;;;;;;;;20.40;68.20;;;;;;5009138;28;1290;-67
2023/10/08 07:15:50;;;;;;;;;;;20.40;68.10;;;;;;5008023;28;1830;-66
2023/10/08 07:18:22;;;;;;;;;;;20.40;66.70;;;;;;4991753;28;1337;-66
2023/10/08 07:20:53;;;;;;;;;;;20.40;66.90;;;;;;5009039;28;1903;-66
2023/10/08 07:23:25;;;;;;;;;;;20.30;67.50;;;;;;5008169;28;1535;-67
2023/10/08 07:26:01;;;;;;;;;;;20.40;67.80;;;;;;4993428;28;1349;-66
2023/10/08 07:28:27;;;;;;;;;;;20.40;68.00;;;;;;5009139;28;1514;-67
2023/10/08 07:30:54;;;;;;;;;;;20.40;68.20;;;;;;5010240;28;1391;-67
2023/10/08 07:33:24;;;;;;;;;;;20.40;68.30;;;;;;5010081;28;1497;-67
2023/10/08 07:35:57;;;;;;;;;;;20.50;68.50;;;;;;5011032;28;1344;-67
2023/10/08 07:38:27;;;;;;;;;;;20.50;68.80;;;;;;5009768;28;1284;-67
2023/10/08 07:40:54;;;;;;;;;;;20.50;68.90;;;;;;5008769;28;1902;-67
2023/10/08 07:43:20;;;;;;;;;;;20.50;68.90;;;;;;5009428;28;1550;-67
2023/10/08 07:45:46;;;;;;;;;;;20.50;69.00;;;;;;5009291;28;1640;-67
2023/10/08 07:48:11;;;;;;;;;;;20.50;69.20;;;;;;5008883;28;1535;-67
2023/10/08 07:50:43;;;;;;;;;;;20.60;69.40;;;;;;4992601;28;1732;-67
2023/10/08 07:53:17;;;;;;;;;;;20.60;69.50;;;;;;5011538;28;2037;-67
2023/10/08 07:55:49;;;;;;;;;;;20.60;69.60;;;;;;5012995;28;1410;-69
2023/10/08 07:58:15;;;;;;;;;;;20.60;69.70;;;;;;5009747;28;1378;-67
2023/10/08 08:00:40;;;;;;;;;;;20.60;69.90;;;;;;5008724;28;1357;-67
2023/10/08 08:03:06;;;;;;;;;;;20.70;70.00;;;;;;5010255;28;1906;-67
2023/10/08 08:05:33;;;;;;;;;;;20.70;70.20;;;;;;5010496;28;1331;-67
2023/10/08 08:08:05;;;;;;;;;;;20.60;70.20;;;;;;5010195;28;1384;-67
2023/10/08 08:10:36;;;;;;;;;;;20.70;70.30;;;;;;4999693;28;1429;-67
2023/10/08 08:13:05;;;;;;;;;;;20.70;70.50;;;;;;5009160;28;1482;-66
2023/10/08 08:15:36;;;;;;;;;;;20.70;70.70;;;;;;5010483;28;1424;-66
2023/10/08 08:18:05;;;;;;;;;;;20.70;71.00;;;;;;5008989;28;1297;-66
2023/10/08 08:20:43;;;;;;;;;;;20.70;71.10;;;;;;5008832;28;1307;-67
2023/10/08 08:23:08;;;;;;;;;;;20.70;71.10;;;;;;5008481;28;1582;-66
2023/10/08 08:25:45;;;;;;;;;;;20.70;71.30;;;;;;5009771;28;1467;-67
2023/10/08 08:28:17;;;;;;;;;;;20.70;71.40;;;;;;4983463;28;1189;-66
2023/10/08 08:30:47;;;;;;;;;;;20.70;71.60;;;;;;4991492;28;1848;-67
2023/10/08 08:33:14;;;;;;;;;;;20.80;72.20;;;;;;5008476;28;1255;-67
2023/10/08 08:35:42;;;;;;;;;;;20.80;72.20;;;;;;5009970;28;1437;-66
2023/10/08 08:38:08;;;;;;;;;;;20.80;72.30;;;;;;5009656;28;1419;-66
2023/10/08 08:40:34;;;;;;;;;;;20.80;72.30;;;;;;5010124;28;1333;-67
2023/10/08 08:43:02;;;;;;;;;;;20.90;72.30;;;;;;5010050;28;1902;-66
2023/10/08 08:45:31;;;;;;;;;;;20.90;72.00;;;;;;5008168;28;1498;-67
2023/10/08 08:47:57;;;;;;;;;;;20.90;72.60;;;;;;5008550;28;1502;-67
2023/10/08 08:50:22;;;;;;;;;;;20.90;71.70;;;;;;5009513;28;1535;-67
2023/10/08 08:52:48;;;;;;;;;;;20.90;71.70;;;;;;5008696;28;1478;-66
2023/10/08 08:55:17;;;;;;;;;;;20.90;71.80;;;;;;5008384;28;1415;-67
2023/10/08 08:57:50;;;;;;;;;;;20.90;71.70;;;;;;5008627;28;1333;-66
2023/10/08 09:00:16;;;;;;;;;;;20.90;72.00;;;;;;5008488;28;1563;-66
2023/10/08 09:02:44;;;;;;;;;;;20.90;72.20;;;;;;4996641;28;1971;-67
2023/10/08 09:05:13;;;;;;;;;;;20.90;72.30;;;;;;5008061;28;1438;-66
2023/10/08 09:07:55;;;;;;;;;;;21.00;72.40;;;;;;5009808;28;1466;-67
2023/10/08 09:10:27;;;;;;;;;;;21.00;72.40;;;;;;5007443;28;1453;-66
2023/10/08 09:12:52;;;;;;;;;;;21.00;72.40;;;;;;5008027;28;1476;-67
2023/10/08 09:15:18;;;;;;;;;;;21.00;72.40;;;;;;4988969;28;4407;-66
2023/10/08 09:17:44;;;;;;;;;;;21.00;72.40;;;;;;4985712;28;4439;-67
2023/10/08 09:20:12;;;;;;;;;;;21.00;72.30;;;;;;5009452;28;1358;-67
2023/10/08 09:22:37;;;;;;;;;;;21.00;72.30;;;;;;5011206;28;1887;-67
2023/10/08 09:25:07;;;;;;;;;;;21.00;72.30;;;;;;5007974;28;1893;-66
2023/10/08 09:27:32;;;;;;;;;;;21.00;72.30;;;;;;5008923;28;1413;-67
2023/10/08 09:29:59;;;;;;;;;;;21.10;72.30;;;;;;5009019;28;1472;-67
2023/10/08 09:32:24;;;;;;;;;;;21.10;72.30;;;;;;5009566;28;1814;-67
2023/10/08 09:34:51;;;;;;;;;;;21.00;72.20;;;;;;5009706;28;1478;-67
2023/10/08 09:37:16;;;;;;;;;;;21.10;72.20;;;;;;5009725;28;1529;-67
2023/10/08 09:39:42;;;;;;;;;;;21.10;72.00;;;;;;5011390;28;1413;-67
2023/10/08 09:42:11;;;;;;;;;;;21.00;71.90;;;;;;5039774;23;3698;-69
2023/10/08 09:44:36;;;;;;;;;;;21.00;72.70;;;;;;5025856;28;1791;-69
2023/10/08 09:47:06;;;;;;;;;;;21.00;72.20;;;;;;5029147;28;1564;-70
2023/10/08 09:49:32;;;;;;;;;;;21.00;72.30;;;;;;5015197;28;1552;-70
2023/10/08 09:51:59;;;;;;;;;;;21.00;72.20;;;;;;5026473;28;1353;-70
2023/10/08 09:54:31;;;;;;;;;;;21.00;72.20;;;;;;5024779;28;1460;-69
2023/10/08 09:56:57;;;;;;;;;;;21.00;72.10;;;;;;5025676;28;1472;-69
2023/10/08 09:59:24;;;;;;;;;;;21.00;72.20;;;;;;5026929;28;1355;-69
2023/10/08 10:01:50;;;;;;;;;;;21.00;72.30;;;;;;5026938;28;1918;-70
2023/10/08 10:04:23;;;;;;;;;;;21.00;72.30;;;;;;5028597;28;1373;-71
2023/10/08 10:06:50;;;;;;;;;;;21.00;72.40;;;;;;5029427;28;1722;-69
2023/10/08 10:09:22;;;;;;;;;;;21.00;72.50;;;;;;5045051;28;1931;-70
2023/10/08 10:11:48;;;;;;;;;;;21.00;72.60;;;;;;5025975;28;1498;-69
2023/10/08 10:14:14;;;;;;;;;;;21.00;72.80;;;;;;5044689;28;1673;-69
2023/10/08 10:16:41;;;;;;;;;;;21.00;72.80;;;;;;5040083;28;1267;-69
2023/10/08 10:19:07;;;;;;;;;;;21.00;72.80;;;;;;5029489;28;1426;-72
2023/10/08 10:21:33;;;;;;;;;;;21.00;72.80;;;;;;5029321;28;1969;-70
2023/10/08 10:23:58;;;;;;;;;;;21.00;72.80;;;;;;5026660;28;1565;-69
2023/10/08 10:26:30;;;;;;;;;;;21.00;72.90;;;;;;5023415;28;1468;-69
2023/10/08 10:29:26;;;;;;;;;;;21.00;73.30;;;;;;5023502;28;1348;-69
2023/10/08 10:31:56;;;;;;;;;;;21.00;73.30;;;;;;5022625;28;1402;-69
2023/10/08 10:34:28;;;;;;;;;;;21.00;73.20;;;;;;5042726;28;1403;-69
2023/10/08 10:37:10;;;;;;;;;;;21.10;73.30;;;;;;5041769;28;1478;-69
2023/10/08 10:39:39;;;;;;;;;;;21.10;73.20;;;;;;5025675;28;1265;-69
2023/10/08 10:42:06;;;;;;;;;;;21.10;73.20;;;;;;5027467;28;1986;-70
2023/10/08 10:44:32;;;;;;;;;;;21.10;73.10;;;;;;5025871;28;2007;-70
2023/10/08 10:47:25;;;;;;;;;;;21.10;73.10;;;;;;5038773;28;1712;-69
2023/10/08 10:57:54;;;;;;;;;;;21.10;72.90;;;;;;5023863;28;1119;-69
2023/10/08 11:03:09;;;;;;;;;;;21.10;72.80;;;;;;5027892;28;1973;-69
2023/10/08 11:05:39;;;;;;;;;;;21.10;73.00;;;;;;5014944;28;1871;-70
2023/10/08 11:08:06;;;;;;;;;;;21.10;73.10;;;;;;5038383;28;1110;-69
2023/10/08 11:10:46;;;;;;;;;;;21.10;73.10;;;;;;5024259;28;1582;-70
2023/10/08 11:13:14;;;;;;;;;;;21.10;73.00;;;;;;5024834;28;1476;-69
2023/10/08 11:15:48;;;;;;;;;;;21.10;73.00;;;;;;5039055;28;1355;-70
2023/10/08 11:18:17;;;;;;;;;;;21.10;73.00;;;;;;5039741;28;1214;-70
2023/10/08 11:20:45;;;;;;;;;;;21.10;73.00;;;;;;5032352;28;1232;-70
2023/10/08 11:23:33;;;;;;;;;;;21.00;72.90;;;;;;5028012;28;1906;-69
2023/10/08 11:26:02;;;;;;;;;;;21.10;73.10;;;;;;5039493;28;1202;-70
2023/10/08 11:28:28;;;;;;;;;;;21.10;73.20;;;;;;5024562;28;1410;-69
2023/10/08 11:30:53;;;;;;;;;;;21.10;73.20;;;;;;5021253;28;1258;-69
2023/10/08 11:33:19;;;;;;;;;;;21.10;73.20;;;;;;5025523;28;1482;-69
2023/10/08 11:36:18;;;;;;;;;;;21.00;73.20;;;;;;5038858;28;1428;-69
2023/10/08 11:38:50;;;;;;;;;;;21.10;73.80;;;;;;5043652;28;1123;-70
2023/10/08 11:41:22;;;;;;;;;;;21.10;73.90;;;;;;5024739;28;1963;-69
2023/10/08 11:43:53;;;;;;;;;;;21.10;73.70;;;;;;5037442;28;1503;-69
2023/10/08 11:46:25;;;;;;;;;;;21.10;73.60;;;;;;5024831;28;1480;-70
2023/10/08 11:48:51;;;;;;;;;;;21.10;73.50;;;;;;5039410;28;1372;-69
2023/10/08 11:51:17;;;;;;;;;;;21.10;73.40;;;;;;5042236;28;1392;-69
2023/10/08 11:53:44;;;;;;;;;;;21.10;73.60;;;;;;5027352;28;1408;-70
2023/10/08 11:56:13;;;;;;;;;;;21.10;73.40;;;;;;5025335;28;1395;-70
2023/10/08 11:58:39;;;;;;;;;;;21.10;73.40;;;;;;5024493;28;1713;-70
2023/10/08 12:01:05;;;;;;;;;;;21.10;73.40;;;;;;5007708;28;1969;-69
2023/10/08 12:03:31;;;;;;;;;;;21.10;73.70;;;;;;5024880;28;1888;-69
2023/10/08 12:06:00;;;;;;;;;;;21.10;74.00;;;;;;5038489;28;1886;-69
2023/10/08 12:08:27;;;;;;;;;;;21.10;72.20;;;;;;5043216;28;1547;-69
2023/10/08 12:10:55;;;;;;;;;;;21.10;71.00;;;;;;5025388;28;1249;-69
2023/10/08 12:13:24;;;;;;;;;;;21.00;70.00;;;;;;5037753;28;1480;-69
2023/10/08 12:16:05;;;;;;;;;;;21.00;69.00;;;;;;5037857;28;1410;-70
2023/10/08 12:18:31;;;;;;;;;;;21.00;68.00;;;;;;5040161;28;1265;-69
2023/10/08 12:20:56;;;;;;;;;;;20.90;67.00;;;;;;5042973;28;1902;-70
2023/10/08 12:23:29;;;;;;;;;;;20.90;66.60;;;;;;5039184;28;1368;-69
2023/10/08 12:25:57;;;;;;;;;;;20.90;65.90;;;;;;5025502;28;1922;-70
2023/10/08 12:28:23;;;;;;;;;;;20.90;65.70;;;;;;5022631;28;2145;-69
2023/10/08 12:30:52;;;;;;;;;;;20.90;65.00;;;;;;5025549;28;1341;-69
2023/10/08 12:33:21;;;;;;;;;;;20.80;64.00;;;;;;5024561;28;1375;-69
2023/10/08 12:35:47;;;;;;;;;;;20.80;64.80;;;;;;5022787;28;1994;-69
2023/10/08 12:38:14;;;;;;;;;;;20.80;66.00;;;;;;5023803;28;2451;-70
2023/10/08 12:40:47;;;;;;;;;;;20.80;65.70;;;;;;5021953;28;1894;-71
2023/10/08 12:43:13;;;;;;;;;;;20.80;65.60;;;;;;5040412;28;2040;-71
2023/10/08 12:45:38;;;;;;;;;;;20.80;64.20;;;;;;5024863;28;1531;-71
2023/10/08 12:48:05;;;;;;;;;;;20.70;64.40;;;;;;5026073;28;1590;-71
2023/10/08 12:50:42;;;;;;;;;;;20.70;64.10;;;;;;5040560;28;1542;-71
2023/10/08 12:53:11;;;;;;;;;;;20.70;64.30;;;;;;5023981;28;1447;-70
2023/10/08 12:55:39;;;;;;;;;;;20.70;64.20;;;;;;5041582;28;1300;-70
2023/10/08 12:58:14;;;;;;;;;;;20.70;64.50;;;;;;5042354;28;1283;-70
2023/10/08 13:00:41;;;;;;;;;;;20.70;63.60;;;;;;5029734;28;1371;-70
2023/10/08 13:03:15;;;;;;;;;;;20.70;63.10;;;;;;5039677;28;1910;-70
2023/10/08 13:05:44;;;;;;;;;;;20.70;61.90;;;;;;5041150;28;1402;-70
2023/10/08 13:08:10;;;;;;;;;;;20.70;62.50;;;;;;5039715;28;1224;-71
2023/10/08 13:10:35;;;;;;;;;;;20.70;62.60;;;;;;5023731;28;1285;-72
2023/10/08 13:13:01;;;;;;;;;;;20.70;61.90;;;;;;5042923;28;1525;-70
2023/10/08 13:15:26;;;;;;;;;;;20.60;63.00;;;;;;5027943;28;1420;-70
2023/10/08 13:17:52;;;;;;;;;;;20.60;62.30;;;;;;5044318;28;1243;-70
2023/10/08 13:20:18;;;;;;;;;;;20.70;63.00;;;;;;5044772;28;1591;-70
2023/10/08 13:22:43;;;;;;;;;;;20.70;62.10;;;;;;5043610;28;1894;-70
2023/10/08 13:25:12;;;;;;;;;;;20.60;62.60;;;;;;5026463;28;1567;-70
2023/10/08 13:27:39;;;;;;;;;;;20.60;62.80;;;;;;5028553;28;1330;-70
2023/10/08 13:30:10;;;;;;;;;;;20.60;62.20;;;;;;5046216;28;1589;-70
2023/10/08 13:32:36;;;;;;;;;;;20.60;62.50;;;;;;5042832;28;1441;-71
2023/10/08 13:35:04;;;;;;;;;;;20.60;62.70;;;;;;5043629;28;1463;-70
2023/10/08 13:37:29;;;;;;;;;;;20.60;62.40;;;;;;5040768;28;1405;-70
2023/10/08 13:39:55;;;;;;;;;;;20.60;62.60;;;;;;5026167;28;1243;-71
2023/10/08 13:42:20;;;;;;;;;;;20.60;61.90;;;;;;5026183;28;1967;-70
2023/10/08 13:44:46;;;;;;;;;;;20.60;61.80;;;;;;5044462;28;1158;-70
2023/10/08 13:47:15;;;;;;;;;;;20.60;61.60;;;;;;5024042;28;1561;-70
2023/10/08 13:49:42;;;;;;;;;;;20.60;61.30;;;;;;5025421;28;1103;-68
2023/10/08 13:52:08;;;;;;;;;;;20.60;61.30;;;;;;5043681;28;1403;-71
2023/10/08 13:54:39;;;;;;;;;;;20.50;59.90;;;;;;5028810;28;1108;-71
2023/10/08 13:57:08;;;;;;;;;;;20.50;59.60;;;;;;5028258;28;1303;-70
2023/10/08 13:59:34;;;;;;;;;;;20.50;59.40;;;;;;5029051;28;1652;-71
2023/10/08 14:02:01;;;;;;;;;;;20.50;59.50;;;;;;5040687;28;1971;-71
2023/10/08 14:04:30;;;;;;;;;;;20.50;59.50;;;;;;5030968;28;4090;-70
2023/10/08 14:06:58;;;;;;;;;;;20.50;59.30;;;;;;5038902;28;1257;-71
2023/10/08 14:09:31;;;;;;;;;;;20.50;60.00;;;;;;5037713;28;1322;-72
2023/10/08 14:11:56;;;;;;;;;;;20.50;60.90;;;;;;5020586;28;1414;-71
2023/10/08 14:14:24;;;;;;;;;;;20.50;60.40;;;;;;5041119;28;1355;-72
2023/10/08 14:16:53;;;;;;;;;;;20.50;60.30;;;;;;5043117;28;1267;-72
2023/10/08 14:19:23;;;;;;;;;;;20.40;60.60;;;;;;5040769;28;1498;-70
2023/10/08 14:21:49;;;;;;;;;;;20.50;59.50;;;;;;5024198;28;1910;-71
2023/10/08 14:24:16;;;;;;;;;;;20.40;59.40;;;;;;5027502;28;1244;-71
2023/10/08 14:26:43;;;;;;;;;;;20.40;59.80;;;;;;5039265;28;1164;-71
2023/10/08 14:29:10;;;;;;;;;;;20.40;60.40;;;;;;5039479;28;1237;-71
2023/10/08 14:31:38;;;;;;;;;;;20.40;60.90;;;;;;5039975;28;1240;-72
2023/10/08 14:42:55;;;;;;;;;;;20.40;59.50;;;;;;5041962;28;1511;-71
2023/10/08 14:44:59;;;;;;;;;;;20.40;60.10;;;;;;5023961;28;4232;-71
2023/10/08 14:47:25;;;;;;;;;;;20.40;59.70;;;;;;5035233;28;4714;-71
2023/10/08 14:49:51;;;;;;;;;;;20.40;59.70;;;;;;5023106;28;4697;-71
2023/10/08 14:52:16;;;;;;;;;;;20.40;59.50;;;;;;5021044;28;4456;-71
2023/10/08 14:54:42;;;;;;;;;;;20.40;60.10;;;;;;5027522;28;4710;-71
2023/10/08 14:57:09;;;;;;;;;;;20.40;59.50;;;;;;5033134;28;4316;-69
2023/10/08 14:59:35;;;;;;;;;;;20.40;59.50;;;;;;5035864;28;4614;-70
2023/10/08 15:02:00;;;;;;;;;;;20.40;58.90;;;;;;5019098;28;4987;-70
2023/10/08 15:04:28;;;;;;;;;;;20.40;59.50;;;;;;5031449;28;4240;-71
2023/10/08 15:06:55;;;;;;;;;;;20.40;59.70;;;;;;5035043;28;4500;-71
2023/10/08 15:09:23;;;;;;;;;;;20.40;59.50;;;;;;5026221;28;4385;-71
2023/10/08 15:11:52;;;;;;;;;;;20.40;59.90;;;;;;5027084;28;4335;-70
2023/10/08 15:14:23;;;;;;;;;;;20.30;59.80;;;;;;5023455;28;1309;-71
2023/10/08 15:16:52;;;;;;;;;;;20.40;59.90;;;;;;5039449;28;1549;-72
2023/10/08 15:19:23;;;;;;;;;;;20.40;59.70;;;;;;5038480;28;1580;-71
2023/10/08 15:21:52;;;;;;;;;;;20.40;60.00;;;;;;5026968;28;1918;-70
2023/10/08 15:24:17;;;;;;;;;;;20.40;59.80;;;;;;5030975;28;4505;-72
2023/10/08 15:26:42;;;;;;;;;;;20.40;60.10;;;;;;5034831;28;4547;-71
2023/10/08 15:29:09;;;;;;;;;;;20.30;59.20;;;;;;5019895;28;4804;-70
2023/10/08 15:31:35;;;;;;;;;;;20.30;58.70;;;;;;5036566;28;2016;-72
2023/10/08 15:34:04;;;;;;;;;;;20.30;59.40;;;;;;5025534;28;1954;-71
2023/10/08 15:36:30;;;;;;;;;;;20.30;59.70;;;;;;5006407;28;4616;-71
2023/10/08 15:38:55;;;;;;;;;;;20.30;58.60;;;;;;5020676;28;4706;-70
2023/10/08 15:41:21;;;;;;;;;;;20.30;57.70;;;;;;5035230;28;5067;-71
2023/10/08 15:43:51;;;;;;;;;;;20.30;57.70;;;;;;5039041;28;1557;-72
2023/10/08 15:46:17;;;;;;;;;;;20.30;58.00;;;;;;5024321;28;1471;-72
2023/10/08 15:48:43;;;;;;;;;;;20.30;58.10;;;;;;5038622;28;1357;-71